Time;durP1;ratioP1;P1;durP2;ratioP2;P2;SDS_P1;SDS_P2;PMS_P1;PMS_P2;Temp;Humidity;BMP_temperature;BMP_pressure;BME280_temperature;BME280_humidity;BME280_pressure;Samples;Min_cycle;Max_cycle;Signal;HPM_P1;HPM_P2
2023/04/11 00:02:06;;;;;;;19.88;3.22;;;;;;;8.60;100.00;100756.88;4997094;28;20382;-85
2023/04/11 00:04:33;;;;;;;20.80;3.80;;;;;;;8.62;100.00;100753.97;4981047;28;20034;-85
2023/04/11 00:06:59;;;;;;;23.23;4.00;;;;;;;8.60;100.00;100748.75;4965225;28;20033;-85
2023/04/11 00:09:25;;;;;;;23.93;3.70;;;;;;;8.58;100.00;100756.25;4981077;28;20036;-85
2023/04/11 00:11:50;;;;;;;25.60;4.00;;;;;;;8.50;100.00;100752.91;4996781;28;20037;-85
2023/04/11 00:14:16;;;;;;;26.73;4.23;;;;;;;8.39;100.00;100741.63;4981020;28;20497;-86
2023/04/11 00:16:42;;;;;;;30.58;5.25;;;;;;;8.39;100.00;100755.13;4981194;28;20163;-85
2023/04/11 00:19:08;;;;;;;27.13;4.78;;;;;;;8.36;100.00;100760.94;5013410;28;20026;-85
2023/04/11 00:21:38;;;;;;;26.15;4.63;;;;;;;8.29;100.00;100751.97;4980901;28;20044;-85
2023/04/11 00:24:07;;;;;;;29.42;4.35;;;;;;;8.19;100.00;100762.34;5014379;28;20400;-86
2023/04/11 00:26:32;;;;;;;37.37;5.50;;;;;;;8.10;100.00;100752.75;5014494;28;20041;-85
2023/04/11 00:29:00;;;;;;;28.85;4.97;;;;;;;8.07;100.00;100756.69;4996411;28;20029;-85
2023/04/11 00:31:26;;;;;;;24.67;3.90;;;;;;;8.08;100.00;100766.47;4998057;28;20034;-85
2023/04/11 00:33:54;;;;;;;28.67;5.07;;;;;;;7.98;100.00;100761.41;5013299;28;20064;-86
2023/04/11 00:36:21;;;;;;;30.00;4.53;;;;;;;7.89;100.00;100758.03;4996700;28;20037;-85
2023/04/11 00:38:47;;;;;;;28.25;5.18;;;;;;;7.85;100.00;100762.19;4996525;28;20450;-85
2023/04/11 00:41:12;;;;;;;30.67;4.63;;;;;;;7.78;100.00;100758.63;4980516;28;20079;-85
2023/04/11 00:43:38;;;;;;;36.03;5.30;;;;;;;7.76;100.00;100771.47;4980734;28;20218;-85
2023/04/11 00:46:03;;;;;;;26.77;4.77;;;;;;;7.85;100.00;100781.09;4980420;28;20036;-85
2023/04/11 00:48:30;;;;;;;32.92;5.47;;;;;;;7.83;100.00;100766.94;4996526;28;20164;-85
2023/04/11 00:51:05;;;;;;;34.83;4.97;;;;;;;7.90;100.00;100769.72;4996139;28;20040;-85
2023/04/11 00:53:31;;;;;;;31.40;5.37;;;;;;;7.89;100.00;100765.31;4980504;28;20038;-85
2023/04/11 00:55:58;;;;;;;17.73;3.63;;;;;;;7.93;100.00;100757.63;4996495;28;20056;-85
2023/04/11 00:58:24;;;;;;;29.25;4.75;;;;;;;7.90;100.00;100762.41;4996462;28;20037;-85
2023/04/11 01:00:52;;;;;;;28.00;4.60;;;;;;;8.00;100.00;100763.91;4996361;28;20026;-85
2023/04/11 01:03:18;;;;;;;26.48;5.55;;;;;;;7.97;100.00;100781.38;4996015;28;20030;-86
2023/04/11 01:05:44;;;;;;;29.30;4.10;;;;;;;7.98;100.00;100755.19;4996372;28;20037;-85
2023/04/11 01:08:13;;;;;;;30.90;5.85;;;;;;;7.95;100.00;100775.31;4996514;28;20029;-85
2023/04/11 01:10:41;;;;;;;35.85;5.63;;;;;;;7.93;100.00;100761.19;4997058;28;20477;-85
2023/04/11 01:13:08;;;;;;;26.33;4.55;;;;;;;7.90;100.00;100756.19;4980106;28;20045;-85
2023/04/11 01:15:34;;;;;;;28.15;3.67;;;;;;;7.89;100.00;100773.44;4980595;28;20026;-85
2023/04/11 01:18:00;;;;;;;27.48;3.95;;;;;;;7.86;100.00;100766.53;4996217;28;20382;-85
2023/04/11 01:20:27;;;;;;;31.15;4.93;;;;;;;7.85;100.00;100759.50;5013834;28;20034;-85
2023/04/11 01:22:56;;;;;;;27.40;3.90;;;;;;;7.81;100.00;100758.22;4996215;28;20382;-87
2023/04/11 01:25:22;;;;;;;29.00;4.30;;;;;;;7.75;100.00;100759.03;4979883;28;20144;-85
2023/04/11 01:27:48;;;;;;;25.35;3.67;;;;;;;7.74;100.00;100762.75;4964496;28;20034;-85
2023/04/11 01:30:13;;;;;;;31.75;4.30;;;;;;;7.69;100.00;100752.56;5012253;28;20080;-85
2023/04/11 01:32:39;;;;;;;31.70;4.13;;;;;;;7.71;100.00;100755.06;4979915;28;20044;-85
2023/04/11 01:35:06;;;;;;;30.37;3.97;;;;;;;7.66;100.00;100762.91;5014040;28;20041;-85
2023/04/11 01:37:31;;;;;;;31.27;4.30;;;;;;;7.64;100.00;100762.28;4979814;28;20498;-86
2023/04/11 01:39:57;;;;;;;33.90;4.43;;;;;;;7.54;100.00;100768.00;5013855;28;20030;-85
2023/04/11 01:42:23;;;;;;;27.13;4.38;;;;;;;7.53;100.00;100774.47;4995981;28;20116;-85
2023/04/11 01:44:52;;;;;;;29.48;4.65;;;;;;;7.46;100.00;100769.00;4996696;28;20454;-85
2023/04/11 01:47:18;;;;;;;28.40;4.67;;;;;;;7.45;100.00;100788.09;4996066;28;20479;-86
2023/04/11 01:49:43;;;;;;;30.50;4.40;;;;;;;7.41;100.00;100784.13;4996080;28;20042;-85
2023/04/11 01:52:09;;;;;;;32.13;4.30;;;;;;;7.38;100.00;100793.44;5012823;28;20033;-85
2023/04/11 01:54:34;;;;;;;30.53;4.30;;;;;;;7.33;100.00;100793.19;4979955;28;20050;-86
2023/04/11 01:57:00;;;;;;;36.72;4.43;;;;;;;7.32;100.00;100799.63;4995765;28;20386;-86
2023/04/11 01:59:26;;;;;;;29.60;4.50;;;;;;;7.33;100.00;100793.19;4995810;28;20045;-86
2023/04/11 02:01:52;;;;;;;27.50;4.50;;;;;;;7.34;100.00;100797.56;4995646;28;20036;-86
2023/04/11 02:04:17;;;;;;;30.70;4.25;;;;;;;7.36;100.00;100804.44;4979634;28;20041;-86
2023/04/11 02:06:43;;;;;;;27.55;4.70;;;;;;;7.41;100.00;100795.78;4995759;28;20037;-86
2023/04/11 02:09:08;;;;;;;27.03;4.60;;;;;;;7.37;100.00;100798.00;4995778;28;20072;-86
2023/04/11 02:11:34;;;;;;;37.50;4.87;;;;;;;7.41;100.00;100805.72;4979614;28;20097;-85
2023/04/11 02:14:02;;;;;;;34.72;5.25;;;;;;;7.51;100.00;100817.00;5012105;28;20076;-86
2023/04/11 02:16:28;;;;;;;29.37;4.33;;;;;;;7.56;100.00;100817.28;4995577;28;20022;-86
2023/04/11 02:18:54;;;;;;;27.40;4.63;;;;;;;7.49;100.00;100825.31;5013296;28;20052;-86
2023/04/11 02:21:20;;;;;;;32.53;5.72;;;;;;;7.48;100.00;100809.31;4995420;28;20030;-85
2023/04/11 02:23:47;;;;;;;23.53;4.20;;;;;;;7.50;100.00;100808.09;4980118;28;20068;-85
2023/04/11 02:26:13;;;;;;;31.52;4.97;;;;;;;7.63;100.00;100820.00;4999394;28;20038;-85
2023/04/11 02:28:38;;;;;;;35.83;3.73;;;;;;;7.66;100.00;100823.16;4983168;28;20048;-86
2023/04/11 02:31:07;;;;;;;24.30;3.87;;;;;;;7.66;100.00;100825.00;4998913;28;20401;-86
2023/04/11 02:33:32;;;;;;;28.70;3.90;;;;;;;7.67;100.00;100823.97;5015907;28;20385;-86
2023/04/11 02:35:57;;;;;;;32.47;5.27;;;;;;;7.64;100.00;100816.28;4998821;28;20061;-86
2023/04/11 02:38:23;;;;;;;25.40;4.22;;;;;;;7.66;100.00;100819.59;4999155;28;20105;-86
2023/04/11 02:40:48;;;;;;;21.77;3.45;;;;;;;7.69;100.00;100817.38;4982114;28;20387;-85
2023/04/11 02:43:15;;;;;;;22.57;3.90;;;;;;;7.72;100.00;100829.63;5015996;28;20108;-85
2023/04/11 02:45:40;;;;;;;28.73;3.97;;;;;;;7.74;100.00;100830.28;4998543;28;20068;-85
2023/04/11 02:48:07;;;;;;;29.60;4.30;;;;;;;7.75;100.00;100817.59;5017001;28;20108;-85
2023/04/11 02:50:32;;;;;;;26.52;3.60;;;;;;;7.75;100.00;100837.34;4998714;28;20434;-84
2023/04/11 02:52:57;;;;;;;25.03;3.37;;;;;;;7.77;100.00;100827.19;5016347;28;20033;-85
2023/04/11 02:55:23;;;;;;;28.05;3.63;;;;;;;7.76;100.00;100836.28;4966135;28;20049;-84
2023/04/11 02:57:49;;;;;;;23.95;3.63;;;;;;;7.76;100.00;100827.38;5016060;28;20124;-84
2023/04/11 03:00:18;;;;;;;24.83;3.40;;;;;;;7.81;100.00;100830.31;4982429;28;20474;-84
2023/04/11 03:02:43;;;;;;;18.63;3.77;;;;;;;7.75;100.00;100831.09;4998210;28;20038;-84
2023/04/11 03:05:09;;;;;;;28.35;3.92;;;;;;;7.71;100.00;100817.16;4998576;28;20037;-84
2023/04/11 03:07:37;;;;;;;26.20;4.00;;;;;;;7.70;100.00;100831.69;4998418;28;20485;-84
2023/04/11 03:10:03;;;;;;;22.35;2.83;;;;;;;7.72;100.00;100840.41;4998909;28;20041;-85
2023/04/11 03:12:28;;;;;;;19.53;2.73;;;;;;;7.68;100.00;100833.75;4998443;28;20502;-84
2023/04/11 03:14:54;;;;;;;15.98;2.35;;;;;;;7.62;100.00;100826.44;4982580;28;20041;-85
2023/04/11 03:17:19;;;;;;;19.00;2.20;;;;;;;7.57;100.00;100834.28;4981683;28;20390;-85
2023/04/11 03:19:44;;;;;;;22.57;2.50;;;;;;;7.50;100.00;100831.53;5015773;28;20029;-84
2023/04/11 03:22:13;;;;;;;16.83;2.20;;;;;;;7.45;100.00;100856.41;5015753;28;20041;-84
2023/04/11 03:24:39;;;;;;;13.88;1.92;;;;;;;7.43;100.00;100853.09;4997983;28;20049;-85
2023/04/11 03:27:05;;;;;;;15.77;1.90;;;;;;;7.39;100.00;100859.91;4998065;28;20157;-85
2023/04/11 03:29:31;;;;;;;17.67;1.73;;;;;;;7.46;100.00;100859.97;4981776;28;20038;-85
2023/04/11 03:31:57;;;;;;;14.07;2.05;;;;;;;7.47;100.00;100858.91;4981935;28;20038;-84
2023/04/11 03:34:24;;;;;;;23.33;2.47;;;;;;;7.49;100.00;100868.50;5015210;28;20034;-84
2023/04/11 03:36:50;;;;;;;12.45;1.70;;;;;;;7.50;100.00;100862.06;4997437;28;20034;-84
2023/04/11 03:39:15;;;;;;;18.00;1.97;;;;;;;7.46;100.00;100860.78;4981519;28;20040;-85
2023/04/11 03:41:41;;;;;;;16.45;2.35;;;;;;;7.45;100.00;100869.09;5015317;28;20297;-84
2023/04/11 03:44:06;;;;;;;17.10;2.10;;;;;;;7.45;100.00;100875.31;4997857;28;20022;-85
2023/04/11 03:46:32;;;;;;;12.93;1.60;;;;;;;7.45;100.00;100869.09;4981906;28;20462;-84
2023/04/11 03:48:57;;;;;;;9.80;1.90;;;;;;;7.48;100.00;100866.81;4981371;28;20026;-84
2023/04/11 03:51:22;;;;;;;15.40;2.25;;;;;;;7.46;100.00;100858.09;4997546;28;20779;-84
2023/04/11 03:53:48;;;;;;;19.27;1.97;;;;;;;7.47;100.00;100872.41;4997237;28;20096;-84
2023/04/11 03:56:13;;;;;;;20.00;3.00;;;;;;;7.45;100.00;100871.78;4997473;28;20134;-84
2023/04/11 03:58:39;;;;;;;15.33;2.20;;;;;;;7.40;100.00;100876.91;4997530;28;20113;-85
2023/04/11 04:01:05;;;;;;;15.73;1.95;;;;;;;7.39;100.00;100873.38;4997934;28;20276;-85
2023/04/11 04:03:33;;;;;;;18.70;2.00;;;;;;;7.35;100.00;100870.25;4964728;28;20025;-84
2023/04/11 04:05:58;;;;;;;17.70;2.88;;;;;;;7.36;100.00;100871.91;4997310;28;20501;-85
2023/04/11 04:08:24;;;;;;;14.93;2.33;;;;;;;7.33;100.00;100879.56;5014538;28;20041;-85
2023/04/11 04:10:49;;;;;;;12.50;2.28;;;;;;;7.33;100.00;100877.69;4997063;28;20038;-84
2023/04/11 04:13:15;;;;;;;17.50;2.53;;;;;;;7.30;100.00;100879.97;4980715;28;20490;-85
2023/04/11 04:15:41;;;;;;;19.37;2.33;;;;;;;7.22;100.00;100880.94;4997230;28;20037;-84
2023/04/11 04:18:06;;;;;;;15.35;2.47;;;;;;;7.21;100.00;100900.84;4997049;28;20036;-85
2023/04/11 04:20:32;;;;;;;17.73;2.33;;;;;;;7.16;100.00;100885.22;4980654;28;20030;-84
2023/04/11 04:22:58;;;;;;;16.70;2.30;;;;;;;7.11;100.00;100884.13;4997498;28;20104;-85
2023/04/11 04:25:24;;;;;;;21.00;3.42;;;;;;;7.07;100.00;100885.53;4996898;28;20470;-85
2023/04/11 04:27:52;;;;;;;27.98;3.75;;;;;;;7.02;100.00;100895.03;5014410;28;20116;-85
2023/04/11 04:30:18;;;;;;;23.97;3.70;;;;;;;6.99;100.00;100895.41;4981862;28;20092;-85
2023/04/11 04:32:44;;;;;;;22.00;3.15;;;;;;;6.88;100.00;100898.63;5014256;28;20030;-85
2023/04/11 04:35:12;;;;;;;24.50;3.20;;;;;;;6.82;100.00;100902.91;4997032;28;20036;-85
2023/04/11 04:37:44;;;;;;;20.58;4.07;;;;;;;6.78;100.00;100914.28;4980546;28;20036;-84
2023/04/11 04:40:12;;;;;;;19.97;2.90;;;;;;;6.78;100.00;100912.41;4996900;28;20113;-85
2023/04/11 04:42:40;;;;;;;30.48;3.55;;;;;;;6.77;100.00;100916.09;5014013;28;20030;-85
2023/04/11 04:45:08;;;;;;;23.63;2.67;;;;;;;6.75;100.00;100925.44;4996344;28;20040;-85
2023/04/11 04:47:36;;;;;;;25.48;3.17;;;;;;;6.72;100.00;100921.25;4996351;28;20030;-85
2023/04/11 04:50:02;;;;;;;27.10;3.60;;;;;;;6.67;100.00;100931.75;4996353;28;20095;-84
2023/04/11 04:52:28;;;;;;;19.47;2.90;;;;;;;6.67;100.00;100934.44;5014097;28;20029;-84
2023/04/11 04:54:57;;;;;;;15.48;2.53;;;;;;;6.61;100.00;100929.81;4995923;28;20054;-85
2023/04/11 04:57:28;;;;;;;20.63;2.75;;;;;;;6.56;100.00;100943.03;4996263;28;20034;-84
2023/04/11 04:59:54;;;;;;;24.92;2.92;;;;;;;6.59;100.00;100942.66;4996184;28;20110;-84
2023/04/11 05:02:22;;;;;;;23.03;2.73;;;;;;;6.55;100.00;100947.56;4996738;28;20032;-85
2023/04/11 05:04:50;;;;;;;15.32;2.25;;;;;;;6.55;100.00;100946.72;5013083;28;20022;-85
2023/04/11 05:07:19;;;;;;;13.05;2.42;;;;;;;6.55;100.00;100957.50;4996152;28;20033;-85
2023/04/11 05:09:48;;;;;;;23.35;2.50;;;;;;;6.47;100.00;100953.06;4996947;28;20030;-85
2023/04/11 05:12:16;;;;;;;12.80;1.80;;;;;;;6.45;100.00;100963.16;4996174;28;20113;-85
2023/04/11 05:14:42;;;;;;;16.03;2.23;;;;;;;6.47;100.00;100961.16;4980057;28;20471;-83
2023/04/11 05:17:07;;;;;;;12.68;1.98;;;;;;;6.43;100.00;100976.00;5013761;28;20108;-84
2023/04/11 05:19:32;;;;;;;13.27;1.97;;;;;;;6.39;100.00;100962.06;4996888;28;20053;-84
2023/04/11 05:21:58;;;;;;;17.30;2.23;;;;;;;6.37;100.00;100966.78;4980272;28;20053;-85
2023/04/11 05:24:23;;;;;;;18.40;2.00;;;;;;;6.42;100.00;100963.53;4979704;28;20030;-84
2023/04/11 05:26:49;;;;;;;15.52;2.33;;;;;;;6.37;100.00;100969.50;4979903;28;20065;-85
2023/04/11 05:29:15;;;;;;;18.70;2.10;;;;;;;6.37;100.00;100964.09;4995958;28;20026;-83
2023/04/11 05:31:40;;;;;;;16.43;1.90;;;;;;;6.42;100.00;100979.72;4995598;28;20042;-84
2023/04/11 05:34:05;;;;;;;19.88;1.95;;;;;;;6.43;100.00;100989.47;4996866;28;20146;-84
2023/04/11 05:36:31;;;;;;;18.57;1.90;;;;;;;6.39;100.00;100975.56;4995980;28;20061;-84
2023/04/11 05:38:56;;;;;;;13.53;1.40;;;;;;;6.41;100.00;100983.44;5012260;28;20497;-87
2023/04/11 05:41:22;;;;;;;15.13;1.90;;;;;;;6.42;100.00;100993.19;4963939;28;20038;-85
2023/04/11 05:43:47;;;;;;;18.23;2.03;;;;;;;6.41;100.00;100996.94;4963868;28;20135;-84
2023/04/11 05:46:13;;;;;;;15.90;2.83;;;;;;;6.41;100.00;101007.72;4980557;28;20038;-86
2023/04/11 05:48:38;;;;;;;9.93;1.30;;;;;;;6.43;100.00;100997.56;4995933;28;20464;-85
2023/04/11 05:51:04;;;;;;;13.73;1.87;;;;;;;6.49;100.00;101000.34;4979730;28;20556;-86
2023/04/11 05:53:55;;;;;;;17.05;1.90;;;;;;;6.54;100.00;101012.44;4979855;28;20091;-90
2023/04/11 05:56:20;;;;;;;11.48;1.50;;;;;;;6.61;100.00;101002.59;5011288;28;20077;-92
2023/04/11 05:58:48;;;;;;;18.80;2.53;;;;;;;6.70;100.00;101012.25;4977644;28;20470;-92
2023/04/11 06:01:17;;;;;;;18.85;2.00;;;;;;;6.74;100.00;101010.88;4980884;28;20030;-93
2023/04/11 06:03:44;;;;;;;14.50;1.65;;;;;;;6.75;100.00;101009.03;4998532;28;20041;-93
2023/04/11 06:06:10;;;;;;;11.60;1.73;;;;;;;6.79;100.00;101026.50;4980922;28;20494;-92
2023/04/11 06:08:35;;;;;;;13.38;2.13;;;;;;;6.83;100.00;101027.78;4966604;28;20038;-91
2023/04/11 06:11:00;;;;;;;11.37;1.87;;;;;;;6.88;100.00;101028.09;4964491;28;20030;-90
2023/04/11 06:13:26;;;;;;;16.03;1.60;;;;;;;6.90;100.00;101027.91;4996629;28;20097;-91
2023/04/11 06:15:51;;;;;;;18.77;2.05;;;;;;;6.90;100.00;101025.22;4979894;28;20041;-89
2023/04/11 06:18:20;;;;;;;13.90;1.53;;;;;;;6.88;100.00;101024.53;4963440;28;20471;-88
2023/04/11 06:20:45;;;;;;;14.88;2.20;;;;;;;6.92;100.00;101025.84;4979963;28;20041;-88
2023/04/11 06:23:11;;;;;;;18.67;2.60;;;;;;;6.95;100.00;101033.56;4963358;28;20105;-87
2023/04/11 06:25:37;;;;;;;19.42;2.85;;;;;;;6.95;100.00;101036.25;4979551;28;20034;-88
2023/04/11 06:28:02;;;;;;;15.80;2.40;;;;;;;6.99;100.00;101033.00;4979508;28;20030;-87
2023/04/11 06:30:27;;;;;;;20.87;2.50;;;;;;;7.07;100.00;101033.91;4979701;28;20026;-87
2023/04/11 06:32:53;;;;;;;15.53;2.37;;;;;;;7.10;100.00;101036.25;4963879;28;20034;-88
2023/04/11 06:35:23;;;;;;;12.55;2.95;;;;;;;7.13;100.00;101035.88;4962896;28;20041;-87
2023/04/11 06:37:49;;;;;;;19.85;2.28;;;;;;;7.14;100.00;101051.88;4964960;28;20490;-87
2023/04/11 06:40:16;;;;;;;17.65;2.88;;;;;;;7.15;100.00;101052.72;4962733;28;20034;-87
2023/04/11 06:42:41;;;;;;;16.00;3.03;;;;;;;7.19;100.00;101045.94;4996820;28;20023;-88
2023/04/11 06:45:07;;;;;;;17.35;2.95;;;;;;;7.22;100.00;101055.50;4979296;28;20048;-87
2023/04/11 06:47:32;;;;;;;19.03;2.73;;;;;;;7.26;100.00;101043.28;4962919;28;20031;-88
2023/04/11 06:49:58;;;;;;;18.33;2.92;;;;;;;7.25;100.00;101064.06;4963520;28;20080;-88
2023/04/11 06:52:23;;;;;;;11.47;2.10;;;;;;;7.26;100.00;101071.13;4979144;28;20067;-88
2023/04/11 06:54:49;;;;;;;21.80;2.50;;;;;;;7.35;100.00;101055.66;4984298;28;20402;-87
2023/04/11 06:57:18;;;;;;;13.77;2.95;;;;;;;7.46;100.00;101065.97;4998177;28;20121;-86
2023/04/11 06:59:43;;;;;;;17.67;2.30;;;;;;;7.59;100.00;101064.44;4998126;28;20044;-87
2023/04/11 07:02:09;;;;;;;14.80;2.47;;;;;;;7.61;100.00;101065.09;4998351;28;20038;-87
2023/04/11 07:04:34;;;;;;;14.60;2.43;;;;;;;7.62;100.00;101073.00;4998306;28;20359;-87
2023/04/11 07:07:00;;;;;;;17.37;3.00;;;;;;;7.66;100.00;101068.91;4998487;28;20026;-87
2023/04/11 07:09:25;;;;;;;20.73;3.53;;;;;;;7.81;100.00;101070.72;4981549;28;20284;-87
2023/04/11 07:11:58;;;;;;;18.70;3.07;;;;;;;7.93;99.52;101073.75;4996940;28;20474;-87
2023/04/11 07:14:26;;;;;;;19.60;3.53;;;;;;;7.96;99.68;101079.63;4966592;28;20061;-87
2023/04/11 07:16:54;;;;;;;17.38;3.25;;;;;;;7.94;99.35;101084.34;5015244;28;20076;-87
2023/04/11 07:19:22;;;;;;;20.02;3.05;;;;;;;7.94;98.49;101075.41;4997933;28;20029;-86
2023/04/11 07:21:50;;;;;;;15.98;2.88;;;;;;;7.92;98.79;101080.19;5015594;28;20131;-87
2023/04/11 07:24:17;;;;;;;23.45;3.78;;;;;;;7.96;99.02;101086.84;4982048;28;20038;-86
2023/04/11 07:26:45;;;;;;;15.40;2.80;;;;;;;8.04;96.83;101081.34;4998225;28;20041;-87
2023/04/11 07:29:10;;;;;;;14.68;3.17;;;;;;;8.20;96.06;101105.41;4966294;28;20042;-87
2023/04/11 07:31:40;;;;;;;16.92;2.22;;;;;;;8.30;94.37;101091.56;4981669;28;20556;-87
2023/04/11 07:34:06;;;;;;;19.08;2.58;;;;;;;8.48;92.00;101117.34;4981982;28;20026;-87
2023/04/11 07:36:31;;;;;;;18.65;2.45;;;;;;;8.52;92.74;101114.06;4997602;28;20037;-87
2023/04/11 07:38:58;;;;;;;19.03;2.00;;;;;;;8.50;90.73;101117.97;5015286;28;20033;-86
2023/04/11 07:41:24;;;;;;;14.15;2.20;;;;;;;8.46;89.15;101127.50;4997642;28;20028;-87
2023/04/11 07:43:49;;;;;;;16.00;2.23;;;;;;;8.48;89.67;101111.94;4998529;28;20029;-87
2023/04/11 07:46:17;;;;;;;10.80;2.07;;;;;;;8.52;90.73;101121.31;4998025;28;20478;-87
2023/04/11 07:48:49;;;;;;;12.18;1.90;;;;;;;8.65;89.65;101145.78;4997529;28;20026;-87
2023/04/11 07:51:17;;;;;;;14.75;2.25;;;;;;;8.72;89.57;101116.06;4998303;28;20033;-87
2023/04/11 07:53:43;;;;;;;17.58;3.17;;;;;;;8.80;90.18;101120.50;4997423;28;20038;-87
2023/04/11 07:56:09;;;;;;;11.60;2.27;;;;;;;8.91;88.10;101119.97;5015110;28;20501;-87
2023/04/11 07:58:35;;;;;;;20.13;2.35;;;;;;;8.86;85.62;101109.72;4996985;28;20084;-87
2023/04/11 08:01:01;;;;;;;12.83;2.10;;;;;;;8.91;86.16;101126.19;5013784;28;20034;-87
2023/04/11 08:03:27;;;;;;;16.10;2.35;;;;;;;8.97;85.57;101119.16;5014584;28;20030;-87
2023/04/11 08:05:52;;;;;;;8.80;1.90;;;;;;;9.04;84.17;101119.22;5014715;28;20037;-87
2023/04/11 08:08:18;;;;;;;13.67;1.60;;;;;;;9.14;82.91;101130.53;5014760;28;20026;-87
2023/04/11 08:10:43;;;;;;;10.63;1.85;;;;;;;9.20;80.20;101124.31;4997274;28;20052;-87
2023/04/11 08:13:09;;;;;;;12.53;1.90;;;;;;;9.21;81.28;101123.28;4997545;28;20470;-87
2023/04/11 08:15:36;;;;;;;13.37;2.17;;;;;;;9.30;81.23;101130.19;5014880;28;20034;-87
2023/04/11 08:18:04;;;;;;;13.95;2.05;;;;;;;9.42;80.26;101135.03;4996998;28;20034;-87
2023/04/11 08:20:30;;;;;;;13.63;1.95;;;;;;;9.59;79.79;101140.97;4997158;28;20113;-86
2023/04/11 08:22:55;;;;;;;11.87;2.60;;;;;;;9.71;80.92;101135.78;4980408;28;20463;-87
2023/04/11 08:25:23;;;;;;;11.35;1.80;;;;;;;9.64;78.58;101147.44;4980385;28;20065;-87
2023/04/11 08:27:49;;;;;;;10.15;1.38;;;;;;;9.52;77.51;101188.84;4981126;28;20502;-87
2023/04/11 08:30:16;;;;;;;14.13;1.65;;;;;;;9.47;76.48;101174.03;5014599;28;20026;-87
2023/04/11 08:32:42;;;;;;;11.38;1.40;;;;;;;9.57;76.70;101141.16;4996743;28;20115;-87
2023/04/11 08:35:08;;;;;;;11.07;1.73;;;;;;;9.73;76.02;101167.06;4996583;28;20177;-87
2023/04/11 08:37:33;;;;;;;10.50;1.48;;;;;;;9.75;74.32;101146.03;4996866;28;20061;-89
2023/04/11 08:39:59;;;;;;;7.67;1.10;;;;;;;9.87;75.06;101154.41;4996473;28;20073;-87
2023/04/11 08:42:26;;;;;;;11.43;1.98;;;;;;;9.97;74.65;101167.59;4964038;28;20037;-86
2023/04/11 08:44:57;;;;;;;9.50;1.20;;;;;;;9.94;74.67;101163.41;4996595;28;20484;-87
2023/04/11 08:47:22;;;;;;;7.78;1.42;;;;;;;10.03;75.25;101164.03;4996025;28;20120;-87
2023/04/11 08:49:48;;;;;;;12.57;1.38;;;;;;;10.24;74.01;101159.50;5014184;28;20061;-86
2023/04/11 08:52:15;;;;;;;7.30;2.00;;;;;;;10.32;73.07;101164.75;4997096;28;20064;-86
2023/04/11 08:54:40;;;;;;;9.30;1.75;;;;;;;10.23;72.87;101169.53;4996440;28;20034;-86
2023/04/11 08:57:06;;;;;;;9.83;1.07;;;;;;;10.06;70.21;101181.78;4981069;28;20104;-86
2023/04/11 08:59:34;;;;;;;6.55;1.13;;;;;;;9.99;70.87;101158.22;4996616;28;20030;-86
2023/04/11 09:02:08;;;;;;;17.40;1.50;;;;;;;9.96;70.81;101174.03;4996216;28;20041;-86
2023/04/11 09:04:41;;;;;;;13.40;1.30;;;;;;;10.08;71.65;101160.72;4996237;28;20116;-87
2023/04/11 09:07:06;;;;;;;10.50;1.40;;;;;;;10.14;71.52;101151.75;4980833;28;20209;-87
2023/04/11 09:09:35;;;;;;;5.90;1.17;;;;;;;10.10;72.55;101155.94;4996136;28;20541;-86
2023/04/11 09:12:01;;;;;;;9.80;1.30;;;;;;;10.25;72.04;101166.63;4996207;28;20117;-86
2023/04/11 09:14:27;;;;;;;11.20;1.92;;;;;;;10.37;71.59;101175.84;4996468;28;20374;-86
2023/04/11 09:16:59;;;;;;;7.88;1.15;;;;;;;10.42;68.72;101167.91;4995988;28;20046;-87
2023/04/11 09:19:26;;;;;;;15.85;1.50;;;;;;;10.31;67.10;101172.03;4996789;28;20109;-89
2023/04/11 09:21:53;;;;;;;17.13;2.40;;;;;;;10.28;67.35;101172.44;4996083;28;20049;-87
2023/04/11 09:24:18;;;;;;;8.13;1.40;;;;;;;10.17;66.07;101163.06;4995832;28;20088;-88
2023/04/11 09:26:46;;;;;;;10.80;1.33;;;;;;;10.19;67.47;101171.81;4979991;28;20037;-88
2023/04/11 09:29:34;;;;;;;9.55;1.30;;;;;;;10.32;66.72;101184.56;4980269;28;20057;-87
2023/04/11 09:32:01;;;;;;;6.93;1.27;;;;;;;10.48;67.43;101185.25;5014236;28;20037;-88
2023/04/11 09:34:30;;;;;;;13.75;1.38;;;;;;;10.58;67.31;101165.84;4982131;28;20374;-88
2023/04/11 09:36:56;;;;;;;9.88;1.10;;;;;;;10.59;66.79;101190.06;4983767;28;20030;-87
2023/04/11 09:39:27;;;;;;;11.20;1.43;;;;;;;10.46;65.15;101198.19;5017212;28;20037;-87
2023/04/11 09:41:52;;;;;;;9.95;1.30;;;;;;;10.32;65.85;101186.47;5016906;28;20378;-87
2023/04/11 09:44:33;;;;;;;6.63;1.08;;;;;;;10.29;64.46;101176.00;4999374;28;20041;-88
2023/04/11 09:46:58;;;;;;;8.93;1.07;;;;;;;10.32;62.66;101200.84;5000179;28;20038;-88
2023/04/11 09:49:27;;;;;;;9.70;1.75;;;;;;;10.37;63.93;101173.13;5000178;28;20036;-87
2023/04/11 09:51:54;;;;;;;6.35;1.25;;;;;;;10.65;62.59;101191.13;4999962;28;20083;-87
2023/04/11 09:54:21;;;;;;;8.00;0.82;;;;;;;10.91;62.55;101195.72;4999717;28;20041;-87
2023/04/11 09:56:47;;;;;;;7.33;0.97;;;;;;;11.07;58.39;101175.44;5017694;28;20087;-87
2023/04/11 09:59:14;;;;;;;8.88;1.00;;;;;;;11.05;58.56;101183.78;4999860;28;20026;-87
2023/04/11 10:01:42;;;;;;;9.63;1.48;;;;;;;11.00;57.51;101194.47;5015976;28;20037;-87
2023/04/11 10:04:09;;;;;;;9.93;1.25;;;;;;;10.88;58.42;101190.72;4999469;28;20029;-87
2023/04/11 10:06:53;;;;;;;10.93;0.80;;;;;;;10.91;57.41;101184.88;5017072;28;20116;-87
2023/04/11 10:09:20;;;;;;;5.55;0.90;;;;;;;10.97;56.61;101224.75;4999448;28;20116;-86
2023/04/11 10:11:46;;;;;;;8.88;1.38;;;;;;;11.10;56.46;101217.63;4999260;28;20026;-87
2023/04/11 10:14:38;;;;;;;10.15;1.20;;;;;;;11.27;57.58;101186.28;5017218;28;20030;-87
2023/04/11 10:17:19;;;;;;;10.37;1.10;;;;;;;11.45;55.74;101160.31;4988733;28;20033;-87
2023/04/11 10:19:51;;;;;;;6.53;1.17;;;;;;;11.64;54.50;101192.03;5016575;28;20029;-87
2023/04/11 10:22:42;;;;;;;7.35;1.02;;;;;;;11.75;51.97;101183.22;4999376;28;20036;-87
2023/04/11 10:25:15;;;;;;;5.65;0.85;;;;;;;11.68;53.32;101162.56;5015072;28;20462;-87
2023/04/11 10:27:52;;;;;;;10.55;1.08;;;;;;;11.66;53.26;101178.22;4999288;28;20057;-87
2023/04/11 10:30:37;;;;;;;6.33;0.90;;;;;;;11.67;52.45;101191.59;4999445;28;20565;-88
2023/04/11 10:33:16;;;;;;;6.88;1.02;;;;;;;11.91;52.49;101168.31;4985105;28;20034;-87
2023/04/11 10:35:57;;;;;;;4.43;0.70;;;;;;;11.98;50.23;101195.50;4998643;28;20034;-87
2023/04/11 10:38:45;;;;;;;6.72;1.00;;;;;;;11.93;49.28;101193.41;5015248;28;20041;-87
2023/04/11 10:41:30;;;;;;;5.63;1.13;;;;;;;12.02;50.25;101194.00;5014988;28;20109;-87
2023/04/11 10:44:23;;;;;;;6.93;1.00;;;;;;;12.24;50.91;101177.38;4998560;28;20397;-88
2023/04/11 10:46:53;;;;;;;6.10;1.20;;;;;;;12.30;50.30;101173.78;4999914;28;20030;-87
2023/04/11 10:49:39;;;;;;;8.07;0.82;;;;;;;12.27;48.19;101175.03;5015008;28;20026;-87
2023/04/11 10:52:20;;;;;;;4.05;0.73;;;;;;;12.37;49.12;101177.28;4999296;28;20137;-87
2023/04/11 10:54:46;;;;;;;4.28;0.95;;;;;;;12.55;48.70;101178.41;5015700;28;20041;-87
2023/04/11 10:57:14;;;;;;;7.47;1.10;;;;;;;12.60;48.26;101176.69;4998816;28;20033;-87
2023/04/11 10:59:43;;;;;;;6.35;0.85;;;;;;;12.82;48.43;101141.75;4982644;28;20038;-87
2023/04/11 11:02:08;;;;;;;4.80;1.02;;;;;;;12.97;50.15;101176.81;5015848;28;20026;-88
2023/04/11 11:04:38;;;;;;;7.27;1.07;;;;;;;13.06;47.90;101185.53;4998485;28;20030;-88
2023/04/11 11:07:06;;;;;;;8.02;1.30;;;;;;;12.95;46.66;101165.31;4998715;28;20060;-88
2023/04/11 11:09:34;;;;;;;5.82;0.98;;;;;;;12.89;48.62;101178.97;4998033;28;20025;-88
2023/04/11 11:12:09;;;;;;;3.80;0.70;;;;;;;13.22;47.85;101189.56;4999014;28;20038;-88
2023/04/11 11:14:36;;;;;;;6.32;0.90;;;;;;;13.68;46.98;101171.94;5015781;28;20030;-88
2023/04/11 11:17:04;;;;;;;4.72;1.08;;;;;;;14.59;44.02;101186.66;4998038;28;20056;-88
2023/04/11 11:19:34;;;;;;;4.30;0.93;;;;;;;16.26;38.71;101189.84;4997522;28;20038;-88
2023/04/11 11:22:02;;;;;;;5.28;0.80;;;;;;;17.88;36.25;101171.75;5015680;28;20036;-88